sensor_id;sensor_type;location;lat;lon;timestamp;P1;durP1;ratioP1;P2;durP2;ratioP2
84500;SDS011;74725;44.210;17.906;2024-02-04T00:02:05;106.55;;;54.25;;
84500;SDS011;74725;44.210;17.906;2024-02-04T00:04:43;106.43;;;53.65;;
84500;SDS011;74725;44.210;17.906;2024-02-04T00:07:10;113.60;;;55.17;;
84500;SDS011;74725;44.210;17.906;2024-02-04T00:09:42;113.25;;;54.05;;
84500;SDS011;74725;44.210;17.906;2024-02-04T00:12:12;109.40;;;54.50;;
84500;SDS011;74725;44.210;17.906;2024-02-04T00:14:40;108.53;;;54.80;;
84500;SDS011;74725;44.210;17.906;2024-02-04T00:17:08;89.15;;;45.90;;
84500;SDS011;74725;44.210;17.906;2024-02-04T00:19:43;105.35;;;53.00;;
84500;SDS011;74725;44.210;17.906;2024-02-04T00:22:15;111.88;;;53.67;;
84500;SDS011;74725;44.210;17.906;2024-02-04T00:24:46;103.47;;;50.60;;
84500;SDS011;74725;44.210;17.906;2024-02-04T00:27:14;103.05;;;50.75;;
84500;SDS011;74725;44.210;17.906;2024-02-04T00:29:42;100.10;;;51.17;;
84500;SDS011;74725;44.210;17.906;2024-02-04T00:32:10;96.68;;;51.22;;
84500;SDS011;74725;44.210;17.906;2024-02-04T00:34:37;111.38;;;56.33;;
84500;SDS011;74725;44.210;17.906;2024-02-04T00:37:05;101.13;;;50.67;;
84500;SDS011;74725;44.210;17.906;2024-02-04T00:39:32;89.55;;;47.47;;
84500;SDS011;74725;44.210;17.906;2024-02-04T00:42:00;94.07;;;46.13;;
84500;SDS011;74725;44.210;17.906;2024-02-04T00:44:29;83.95;;;44.03;;
84500;SDS011;74725;44.210;17.906;2024-02-04T00:46:59;85.00;;;44.33;;
84500;SDS011;74725;44.210;17.906;2024-02-04T00:49:28;92.60;;;46.08;;
84500;SDS011;74725;44.210;17.906;2024-02-04T00:51:56;118.63;;;56.10;;
84500;SDS011;74725;44.210;17.906;2024-02-04T00:54:23;98.55;;;49.95;;
84500;SDS011;74725;44.210;17.906;2024-02-04T00:56:51;97.90;;;48.30;;
84500;SDS011;74725;44.210;17.906;2024-02-04T00:59:20;87.25;;;44.67;;
84500;SDS011;74725;44.210;17.906;2024-02-04T01:01:47;92.22;;;47.33;;
84500;SDS011;74725;44.210;17.906;2024-02-04T01:04:15;90.05;;;47.13;;
84500;SDS011;74725;44.210;17.906;2024-02-04T01:06:44;90.55;;;47.10;;
84500;SDS011;74725;44.210;17.906;2024-02-04T01:09:11;89.65;;;45.85;;
84500;SDS011;74725;44.210;17.906;2024-02-04T01:11:42;94.25;;;47.35;;
84500;SDS011;74725;44.210;17.906;2024-02-04T01:14:09;90.32;;;46.42;;
84500;SDS011;74725;44.210;17.906;2024-02-04T01:16:39;99.85;;;49.65;;
84500;SDS011;74725;44.210;17.906;2024-02-04T01:19:07;83.15;;;42.50;;
84500;SDS011;74725;44.210;17.906;2024-02-04T01:21:34;88.18;;;46.65;;
84500;SDS011;74725;44.210;17.906;2024-02-04T01:24:02;79.28;;;44.85;;
84500;SDS011;74725;44.210;17.906;2024-02-04T01:26:30;98.78;;;48.53;;
84500;SDS011;74725;44.210;17.906;2024-02-04T01:28:58;95.07;;;48.60;;
84500;SDS011;74725;44.210;17.906;2024-02-04T01:31:27;113.47;;;53.15;;
84500;SDS011;74725;44.210;17.906;2024-02-04T01:33:56;95.53;;;48.17;;
84500;SDS011;74725;44.210;17.906;2024-02-04T01:36:25;81.97;;;43.13;;
84500;SDS011;74725;44.210;17.906;2024-02-04T01:38:53;89.93;;;45.17;;
84500;SDS011;74725;44.210;17.906;2024-02-04T01:41:20;83.03;;;43.47;;
84500;SDS011;74725;44.210;17.906;2024-02-04T01:43:48;80.57;;;43.65;;
84500;SDS011;74725;44.210;17.906;2024-02-04T01:46:17;83.35;;;43.50;;
84500;SDS011;74725;44.210;17.906;2024-02-04T01:48:44;89.70;;;45.63;;
84500;SDS011;74725;44.210;17.906;2024-02-04T01:51:13;86.78;;;45.15;;
84500;SDS011;74725;44.210;17.906;2024-02-04T01:53:42;83.15;;;41.13;;
84500;SDS011;74725;44.210;17.906;2024-02-04T01:58:39;72.28;;;39.80;;
84500;SDS011;74725;44.210;17.906;2024-02-04T02:01:12;74.22;;;40.83;;
84500;SDS011;74725;44.210;17.906;2024-02-04T02:03:42;77.70;;;42.25;;
84500;SDS011;74725;44.210;17.906;2024-02-04T02:06:09;80.10;;;43.07;;
84500;SDS011;74725;44.210;17.906;2024-02-04T02:08:37;83.30;;;43.67;;
84500;SDS011;74725;44.210;17.906;2024-02-04T02:11:11;87.10;;;43.38;;
84500;SDS011;74725;44.210;17.906;2024-02-04T02:13:47;82.70;;;43.03;;
84500;SDS011;74725;44.210;17.906;2024-02-04T02:16:30;72.07;;;38.45;;
84500;SDS011;74725;44.210;17.906;2024-02-04T02:21:47;75.60;;;38.13;;
84500;SDS011;74725;44.210;17.906;2024-02-04T02:24:36;74.05;;;39.00;;
84500;SDS011;74725;44.210;17.906;2024-02-04T02:27:16;76.85;;;39.95;;
84500;SDS011;74725;44.210;17.906;2024-02-04T02:29:43;75.63;;;40.65;;
84500;SDS011;74725;44.210;17.906;2024-02-04T02:32:13;71.60;;;40.08;;
84500;SDS011;74725;44.210;17.906;2024-02-04T02:34:41;73.63;;;38.67;;
84500;SDS011;74725;44.210;17.906;2024-02-04T02:37:11;74.47;;;39.17;;
84500;SDS011;74725;44.210;17.906;2024-02-04T02:42:28;75.15;;;38.75;;
84500;SDS011;74725;44.210;17.906;2024-02-04T02:44:57;69.65;;;39.05;;
84500;SDS011;74725;44.210;17.906;2024-02-04T02:47:27;80.88;;;42.83;;
84500;SDS011;74725;44.210;17.906;2024-02-04T02:49:56;75.15;;;39.95;;
84500;SDS011;74725;44.210;17.906;2024-02-04T02:52:24;70.93;;;40.60;;
84500;SDS011;74725;44.210;17.906;2024-02-04T02:54:55;72.85;;;40.13;;
84500;SDS011;74725;44.210;17.906;2024-02-04T02:58:06;80.10;;;40.60;;
84500;SDS011;74725;44.210;17.906;2024-02-04T03:00:34;83.53;;;43.22;;
84500;SDS011;74725;44.210;17.906;2024-02-04T03:03:02;86.97;;;45.03;;
84500;SDS011;74725;44.210;17.906;2024-02-04T03:05:30;83.97;;;43.42;;
84500;SDS011;74725;44.210;17.906;2024-02-04T03:07:58;80.60;;;43.67;;
84500;SDS011;74725;44.210;17.906;2024-02-04T03:10:25;81.15;;;42.67;;
84500;SDS011;74725;44.210;17.906;2024-02-04T03:12:52;81.15;;;44.08;;
84500;SDS011;74725;44.210;17.906;2024-02-04T03:15:20;77.80;;;43.03;;
84500;SDS011;74725;44.210;17.906;2024-02-04T03:17:51;71.72;;;39.88;;
84500;SDS011;74725;44.210;17.906;2024-02-04T03:20:18;70.57;;;39.17;;
84500;SDS011;74725;44.210;17.906;2024-02-04T03:22:48;75.37;;;39.73;;
84500;SDS011;74725;44.210;17.906;2024-02-04T03:25:17;66.32;;;36.83;;
84500;SDS011;74725;44.210;17.906;2024-02-04T03:27:44;69.57;;;38.38;;
84500;SDS011;74725;44.210;17.906;2024-02-04T03:30:11;68.65;;;36.88;;
84500;SDS011;74725;44.210;17.906;2024-02-04T03:32:39;67.53;;;37.30;;
84500;SDS011;74725;44.210;17.906;2024-02-04T03:35:06;68.95;;;37.45;;
84500;SDS011;74725;44.210;17.906;2024-02-04T03:37:35;63.28;;;35.03;;
84500;SDS011;74725;44.210;17.906;2024-02-04T03:40:03;65.55;;;36.17;;
84500;SDS011;74725;44.210;17.906;2024-02-04T03:42:30;52.80;;;32.38;;
84500;SDS011;74725;44.210;17.906;2024-02-04T03:44:58;67.53;;;36.60;;
84500;SDS011;74725;44.210;17.906;2024-02-04T03:47:27;62.20;;;35.45;;
84500;SDS011;74725;44.210;17.906;2024-02-04T03:49:55;64.68;;;35.92;;
84500;SDS011;74725;44.210;17.906;2024-02-04T03:52:23;67.63;;;35.28;;
84500;SDS011;74725;44.210;17.906;2024-02-04T03:54:50;69.25;;;37.17;;
84500;SDS011;74725;44.210;17.906;2024-02-04T03:57:18;62.35;;;36.75;;
84500;SDS011;74725;44.210;17.906;2024-02-04T03:59:45;63.65;;;36.05;;
84500;SDS011;74725;44.210;17.906;2024-02-04T04:02:13;65.68;;;37.33;;
84500;SDS011;74725;44.210;17.906;2024-02-04T04:04:40;68.65;;;36.38;;
84500;SDS011;74725;44.210;17.906;2024-02-04T04:07:09;67.65;;;36.08;;
84500;SDS011;74725;44.210;17.906;2024-02-04T04:09:40;68.95;;;38.17;;
84500;SDS011;74725;44.210;17.906;2024-02-04T04:12:08;63.28;;;37.50;;
84500;SDS011;74725;44.210;17.906;2024-02-04T04:14:36;67.43;;;37.85;;
84500;SDS011;74725;44.210;17.906;2024-02-04T04:17:04;67.65;;;36.78;;
84500;SDS011;74725;44.210;17.906;2024-02-04T04:19:31;64.03;;;36.08;;
84500;SDS011;74725;44.210;17.906;2024-02-04T04:22:01;66.60;;;38.13;;
84500;SDS011;74725;44.210;17.906;2024-02-04T04:24:29;67.88;;;36.65;;
84500;SDS011;74725;44.210;17.906;2024-02-04T04:26:56;62.83;;;35.13;;
84500;SDS011;74725;44.210;17.906;2024-02-04T04:29:25;64.80;;;34.78;;
84500;SDS011;74725;44.210;17.906;2024-02-04T04:31:54;63.78;;;36.35;;
84500;SDS011;74725;44.210;17.906;2024-02-04T04:34:22;61.47;;;33.60;;
84500;SDS011;74725;44.210;17.906;2024-02-04T04:36:49;65.95;;;36.50;;
84500;SDS011;74725;44.210;17.906;2024-02-04T04:39:17;69.63;;;37.65;;
84500;SDS011;74725;44.210;17.906;2024-02-04T04:41:45;77.15;;;40.58;;
84500;SDS011;74725;44.210;17.906;2024-02-04T04:44:13;82.05;;;42.20;;
84500;SDS011;74725;44.210;17.906;2024-02-04T04:46:41;85.45;;;41.70;;
84500;SDS011;74725;44.210;17.906;2024-02-04T04:49:11;60.53;;;34.65;;
84500;SDS011;74725;44.210;17.906;2024-02-04T04:51:38;63.63;;;34.83;;
84500;SDS011;74725;44.210;17.906;2024-02-04T04:54:10;58.15;;;34.22;;
84500;SDS011;74725;44.210;17.906;2024-02-04T04:56:41;57.65;;;33.63;;
84500;SDS011;74725;44.210;17.906;2024-02-04T04:59:14;57.15;;;32.10;;
84500;SDS011;74725;44.210;17.906;2024-02-04T05:01:45;57.65;;;33.67;;
84500;SDS011;74725;44.210;17.906;2024-02-04T05:04:13;58.13;;;32.67;;
84500;SDS011;74725;44.210;17.906;2024-02-04T05:06:41;63.58;;;34.30;;
84500;SDS011;74725;44.210;17.906;2024-02-04T05:09:12;62.33;;;35.60;;
84500;SDS011;74725;44.210;17.906;2024-02-04T05:11:39;59.03;;;33.67;;
84500;SDS011;74725;44.210;17.906;2024-02-04T05:14:07;55.95;;;31.33;;
84500;SDS011;74725;44.210;17.906;2024-02-04T05:16:35;62.42;;;32.25;;
84500;SDS011;74725;44.210;17.906;2024-02-04T05:19:07;63.92;;;33.47;;
84500;SDS011;74725;44.210;17.906;2024-02-04T05:21:39;58.67;;;35.53;;
84500;SDS011;74725;44.210;17.906;2024-02-04T05:24:07;62.72;;;34.85;;
84500;SDS011;74725;44.210;17.906;2024-02-04T05:26:35;61.72;;;34.17;;
84500;SDS011;74725;44.210;17.906;2024-02-04T05:29:03;62.63;;;34.55;;
84500;SDS011;74725;44.210;17.906;2024-02-04T05:31:33;59.90;;;33.42;;
84500;SDS011;74725;44.210;17.906;2024-02-04T05:34:11;70.07;;;37.22;;
84500;SDS011;74725;44.210;17.906;2024-02-04T05:36:43;62.38;;;35.70;;
84500;SDS011;74725;44.210;17.906;2024-02-04T05:39:14;62.45;;;35.33;;
84500;SDS011;74725;44.210;17.906;2024-02-04T05:41:42;68.85;;;35.15;;
84500;SDS011;74725;44.210;17.906;2024-02-04T05:44:12;59.85;;;34.97;;
84500;SDS011;74725;44.210;17.906;2024-02-04T05:46:40;65.47;;;35.38;;
84500;SDS011;74725;44.210;17.906;2024-02-04T05:49:08;64.80;;;36.13;;
84500;SDS011;74725;44.210;17.906;2024-02-04T05:51:39;69.20;;;37.50;;
84500;SDS011;74725;44.210;17.906;2024-02-04T05:54:10;68.65;;;36.63;;
84500;SDS011;74725;44.210;17.906;2024-02-04T05:56:38;67.95;;;37.35;;
84500;SDS011;74725;44.210;17.906;2024-02-04T05:59:07;67.28;;;36.38;;
84500;SDS011;74725;44.210;17.906;2024-02-04T06:01:37;61.75;;;34.50;;
84500;SDS011;74725;44.210;17.906;2024-02-04T06:04:05;67.75;;;35.55;;
84500;SDS011;74725;44.210;17.906;2024-02-04T06:06:36;72.85;;;39.33;;
84500;SDS011;74725;44.210;17.906;2024-02-04T06:09:04;72.35;;;38.97;;
84500;SDS011;74725;44.210;17.906;2024-02-04T06:11:32;80.80;;;40.78;;
84500;SDS011;74725;44.210;17.906;2024-02-04T06:14:00;71.55;;;39.42;;
84500;SDS011;74725;44.210;17.906;2024-02-04T06:16:27;73.75;;;38.30;;
84500;SDS011;74725;44.210;17.906;2024-02-04T06:18:55;70.13;;;36.08;;
84500;SDS011;74725;44.210;17.906;2024-02-04T06:21:24;76.90;;;38.25;;
84500;SDS011;74725;44.210;17.906;2024-02-04T06:23:51;77.82;;;39.67;;
84500;SDS011;74725;44.210;17.906;2024-02-04T06:26:19;83.13;;;42.00;;
84500;SDS011;74725;44.210;17.906;2024-02-04T06:28:50;95.35;;;45.13;;
84500;SDS011;74725;44.210;17.906;2024-02-04T06:31:18;89.77;;;43.97;;
84500;SDS011;74725;44.210;17.906;2024-02-04T06:33:45;107.82;;;47.90;;
84500;SDS011;74725;44.210;17.906;2024-02-04T06:36:16;99.72;;;48.40;;
84500;SDS011;74725;44.210;17.906;2024-02-04T06:38:44;94.70;;;46.05;;
84500;SDS011;74725;44.210;17.906;2024-02-04T06:43:40;77.03;;;41.13;;
84500;SDS011;74725;44.210;17.906;2024-02-04T06:46:07;85.55;;;43.47;;
84500;SDS011;74725;44.210;17.906;2024-02-04T06:48:35;94.93;;;43.10;;
84500;SDS011;74725;44.210;17.906;2024-02-04T06:51:03;95.07;;;44.05;;
84500;SDS011;74725;44.210;17.906;2024-02-04T06:53:31;94.40;;;45.60;;
84500;SDS011;74725;44.210;17.906;2024-02-04T06:55:59;88.45;;;44.33;;
84500;SDS011;74725;44.210;17.906;2024-02-04T06:58:26;88.00;;;43.85;;
84500;SDS011;74725;44.210;17.906;2024-02-04T07:00:54;92.95;;;45.03;;
84500;SDS011;74725;44.210;17.906;2024-02-04T07:03:23;95.47;;;46.55;;
84500;SDS011;74725;44.210;17.906;2024-02-04T07:05:50;91.07;;;45.75;;
84500;SDS011;74725;44.210;17.906;2024-02-04T07:08:17;102.35;;;48.75;;
84500;SDS011;74725;44.210;17.906;2024-02-04T07:10:45;108.47;;;52.42;;
84500;SDS011;74725;44.210;17.906;2024-02-04T07:13:12;99.75;;;49.58;;
84500;SDS011;74725;44.210;17.906;2024-02-04T07:15:40;99.22;;;49.17;;
84500;SDS011;74725;44.210;17.906;2024-02-04T07:18:10;96.35;;;48.55;;
84500;SDS011;74725;44.210;17.906;2024-02-04T07:20:38;92.03;;;47.90;;
84500;SDS011;74725;44.210;17.906;2024-02-04T07:23:05;96.63;;;48.13;;
84500;SDS011;74725;44.210;17.906;2024-02-04T07:25:33;93.68;;;48.67;;
84500;SDS011;74725;44.210;17.906;2024-02-04T07:28:02;92.80;;;49.42;;
84500;SDS011;74725;44.210;17.906;2024-02-04T07:30:31;110.13;;;55.22;;
84500;SDS011;74725;44.210;17.906;2024-02-04T07:32:59;164.50;;;89.85;;
84500;SDS011;74725;44.210;17.906;2024-02-04T07:35:27;132.57;;;68.78;;
84500;SDS011;74725;44.210;17.906;2024-02-04T07:37:59;107.28;;;55.40;;
84500;SDS011;74725;44.210;17.906;2024-02-04T07:40:27;98.97;;;51.47;;
84500;SDS011;74725;44.210;17.906;2024-02-04T07:42:56;98.25;;;51.20;;
84500;SDS011;74725;44.210;17.906;2024-02-04T07:45:26;103.43;;;53.22;;
84500;SDS011;74725;44.210;17.906;2024-02-04T07:47:56;102.28;;;55.63;;
84500;SDS011;74725;44.210;17.906;2024-02-04T07:50:23;103.68;;;54.50;;
84500;SDS011;74725;44.210;17.906;2024-02-04T07:52:53;108.53;;;54.17;;
84500;SDS011;74725;44.210;17.906;2024-02-04T07:57:51;103.53;;;50.95;;
84500;SDS011;74725;44.210;17.906;2024-02-04T08:00:18;100.72;;;50.30;;
84500;SDS011;74725;44.210;17.906;2024-02-04T08:02:45;94.28;;;49.40;;
84500;SDS011;74725;44.210;17.906;2024-02-04T08:05:13;92.10;;;49.75;;
84500;SDS011;74725;44.210;17.906;2024-02-04T08:07:41;103.07;;;53.28;;
84500;SDS011;74725;44.210;17.906;2024-02-04T08:10:15;96.50;;;51.15;;
84500;SDS011;74725;44.210;17.906;2024-02-04T08:12:43;91.30;;;49.75;;
84500;SDS011;74725;44.210;17.906;2024-02-04T08:15:10;101.25;;;53.08;;
84500;SDS011;74725;44.210;17.906;2024-02-04T08:17:37;108.68;;;53.80;;
84500;SDS011;74725;44.210;17.906;2024-02-04T08:20:05;104.32;;;55.85;;
84500;SDS011;74725;44.210;17.906;2024-02-04T08:22:33;97.07;;;52.67;;
84500;SDS011;74725;44.210;17.906;2024-02-04T08:25:01;109.97;;;55.55;;
84500;SDS011;74725;44.210;17.906;2024-02-04T08:28:10;109.63;;;55.10;;
84500;SDS011;74725;44.210;17.906;2024-02-04T08:30:38;108.18;;;54.30;;
84500;SDS011;74725;44.210;17.906;2024-02-04T08:33:05;103.75;;;55.58;;
84500;SDS011;74725;44.210;17.906;2024-02-04T08:35:33;125.57;;;68.43;;
84500;SDS011;74725;44.210;17.906;2024-02-04T08:38:01;116.50;;;61.97;;
84500;SDS011;74725;44.210;17.906;2024-02-04T08:40:29;103.55;;;57.35;;
84500;SDS011;74725;44.210;17.906;2024-02-04T08:42:57;106.25;;;54.95;;
84500;SDS011;74725;44.210;17.906;2024-02-04T08:45:28;104.72;;;56.03;;
84500;SDS011;74725;44.210;17.906;2024-02-04T08:47:55;111.85;;;58.80;;
84500;SDS011;74725;44.210;17.906;2024-02-04T08:50:26;109.07;;;58.13;;
84500;SDS011;74725;44.210;17.906;2024-02-04T08:52:54;113.47;;;57.35;;
84500;SDS011;74725;44.210;17.906;2024-02-04T08:55:25;115.32;;;59.40;;
84500;SDS011;74725;44.210;17.906;2024-02-04T08:57:54;115.95;;;58.30;;
84500;SDS011;74725;44.210;17.906;2024-02-04T09:00:21;98.68;;;52.47;;
84500;SDS011;74725;44.210;17.906;2024-02-04T09:02:49;96.28;;;51.97;;
84500;SDS011;74725;44.210;17.906;2024-02-04T09:05:17;94.20;;;50.17;;
84500;SDS011;74725;44.210;17.906;2024-02-04T09:07:48;107.78;;;54.25;;
84500;SDS011;74725;44.210;17.906;2024-02-04T09:12:43;98.22;;;51.38;;
84500;SDS011;74725;44.210;17.906;2024-02-04T09:15:11;101.65;;;52.83;;
84500;SDS011;74725;44.210;17.906;2024-02-04T09:17:39;98.00;;;50.90;;
84500;SDS011;74725;44.210;17.906;2024-02-04T09:20:08;94.53;;;49.67;;
84500;SDS011;74725;44.210;17.906;2024-02-04T09:22:36;93.55;;;51.00;;
84500;SDS011;74725;44.210;17.906;2024-02-04T09:25:06;97.60;;;51.85;;
84500;SDS011;74725;44.210;17.906;2024-02-04T09:27:35;86.97;;;48.72;;
84500;SDS011;74725;44.210;17.906;2024-02-04T09:30:04;92.22;;;49.20;;
84500;SDS011;74725;44.210;17.906;2024-02-04T09:32:32;86.82;;;50.95;;
84500;SDS011;74725;44.210;17.906;2024-02-04T09:35:00;88.28;;;50.85;;
84500;SDS011;74725;44.210;17.906;2024-02-04T09:37:27;88.85;;;46.15;;
84500;SDS011;74725;44.210;17.906;2024-02-04T09:39:54;77.43;;;43.47;;
84500;SDS011;74725;44.210;17.906;2024-02-04T09:42:22;72.72;;;42.80;;
84500;SDS011;74725;44.210;17.906;2024-02-04T09:44:49;72.40;;;38.92;;
84500;SDS011;74725;44.210;17.906;2024-02-04T09:47:18;68.38;;;41.47;;
84500;SDS011;74725;44.210;17.906;2024-02-04T09:49:46;70.63;;;41.85;;
84500;SDS011;74725;44.210;17.906;2024-02-04T09:52:14;71.13;;;40.72;;
84500;SDS011;74725;44.210;17.906;2024-02-04T09:54:49;70.90;;;39.58;;
84500;SDS011;74725;44.210;17.906;2024-02-04T09:57:20;71.35;;;41.67;;
84500;SDS011;74725;44.210;17.906;2024-02-04T09:59:49;66.15;;;40.88;;
84500;SDS011;74725;44.210;17.906;2024-02-04T10:02:16;63.75;;;38.38;;
84500;SDS011;74725;44.210;17.906;2024-02-04T10:04:45;63.38;;;39.72;;
84500;SDS011;74725;44.210;17.906;2024-02-04T10:07:13;67.60;;;39.90;;
84500;SDS011;74725;44.210;17.906;2024-02-04T10:09:43;67.38;;;40.03;;
84500;SDS011;74725;44.210;17.906;2024-02-04T10:12:13;71.25;;;39.58;;
84500;SDS011;74725;44.210;17.906;2024-02-04T10:14:41;59.72;;;37.90;;
84500;SDS011;74725;44.210;17.906;2024-02-04T10:17:10;67.68;;;38.97;;
84500;SDS011;74725;44.210;17.906;2024-02-04T10:19:40;64.13;;;37.60;;
84500;SDS011;74725;44.210;17.906;2024-02-04T10:22:11;67.10;;;38.28;;
84500;SDS011;74725;44.210;17.906;2024-02-04T10:24:38;59.28;;;36.10;;
84500;SDS011;74725;44.210;17.906;2024-02-04T10:27:12;53.35;;;31.25;;
84500;SDS011;74725;44.210;17.906;2024-02-04T10:29:42;41.85;;;25.50;;
84500;SDS011;74725;44.210;17.906;2024-02-04T10:32:10;43.83;;;26.33;;
84500;SDS011;74725;44.210;17.906;2024-02-04T10:34:39;44.47;;;28.13;;
84500;SDS011;74725;44.210;17.906;2024-02-04T10:37:07;41.70;;;25.90;;
84500;SDS011;74725;44.210;17.906;2024-02-04T10:39:36;47.50;;;28.77;;
84500;SDS011;74725;44.210;17.906;2024-02-04T10:42:05;43.17;;;27.33;;
84500;SDS011;74725;44.210;17.906;2024-02-04T10:44:37;45.38;;;28.55;;
84500;SDS011;74725;44.210;17.906;2024-02-04T10:47:29;50.05;;;30.58;;
84500;SDS011;74725;44.210;17.906;2024-02-04T10:50:06;45.97;;;27.80;;
84500;SDS011;74725;44.210;17.906;2024-02-04T10:52:36;46.23;;;26.07;;
84500;SDS011;74725;44.210;17.906;2024-02-04T10:55:11;48.53;;;30.08;;
84500;SDS011;74725;44.210;17.906;2024-02-04T11:00:15;48.05;;;28.30;;
84500;SDS011;74725;44.210;17.906;2024-02-04T11:02:47;49.22;;;30.35;;
84500;SDS011;74725;44.210;17.906;2024-02-04T11:05:16;46.25;;;28.50;;
84500;SDS011;74725;44.210;17.906;2024-02-04T11:07:47;47.35;;;29.58;;
84500;SDS011;74725;44.210;17.906;2024-02-04T11:10:16;52.05;;;30.70;;
84500;SDS011;74725;44.210;17.906;2024-02-04T11:12:46;50.30;;;30.40;;
84500;SDS011;74725;44.210;17.906;2024-02-04T11:15:16;45.78;;;29.98;;
84500;SDS011;74725;44.210;17.906;2024-02-04T11:24:10;43.85;;;26.92;;
84500;SDS011;74725;44.210;17.906;2024-02-04T11:26:52;41.50;;;26.02;;
84500;SDS011;74725;44.210;17.906;2024-02-04T11:29:24;45.78;;;26.80;;
84500;SDS011;74725;44.210;17.906;2024-02-04T11:31:53;39.53;;;27.43;;
84500;SDS011;74725;44.210;17.906;2024-02-04T11:34:21;49.38;;;29.65;;
84500;SDS011;74725;44.210;17.906;2024-02-04T11:36:50;47.47;;;29.48;;
84500;SDS011;74725;44.210;17.906;2024-02-04T11:39:18;46.80;;;29.73;;
84500;SDS011;74725;44.210;17.906;2024-02-04T11:41:51;44.30;;;29.38;;
84500;SDS011;74725;44.210;17.906;2024-02-04T11:44:22;48.72;;;31.73;;
84500;SDS011;74725;44.210;17.906;2024-02-04T11:46:50;49.20;;;29.83;;
84500;SDS011;74725;44.210;17.906;2024-02-04T11:49:24;43.92;;;28.95;;
84500;SDS011;74725;44.210;17.906;2024-02-04T11:51:52;45.20;;;28.33;;
84500;SDS011;74725;44.210;17.906;2024-02-04T11:54:21;48.80;;;28.02;;
84500;SDS011;74725;44.210;17.906;2024-02-04T11:57:22;42.03;;;27.85;;
84500;SDS011;74725;44.210;17.906;2024-02-04T12:01:10;40.05;;;25.15;;
84500;SDS011;74725;44.210;17.906;2024-02-04T12:03:38;40.88;;;26.08;;
84500;SDS011;74725;44.210;17.906;2024-02-04T12:06:07;42.67;;;28.13;;
84500;SDS011;74725;44.210;17.906;2024-02-04T12:08:42;44.00;;;28.23;;
84500;SDS011;74725;44.210;17.906;2024-02-04T12:11:11;42.38;;;28.10;;
84500;SDS011;74725;44.210;17.906;2024-02-04T12:13:39;43.30;;;28.58;;
84500;SDS011;74725;44.210;17.906;2024-02-04T12:16:08;49.30;;;30.60;;
84500;SDS011;74725;44.210;17.906;2024-02-04T12:18:47;47.85;;;29.63;;
84500;SDS011;74725;44.210;17.906;2024-02-04T12:21:17;46.78;;;28.85;;
84500;SDS011;74725;44.210;17.906;2024-02-04T12:23:46;45.67;;;27.42;;
84500;SDS011;74725;44.210;17.906;2024-02-04T12:26:13;44.85;;;26.73;;
84500;SDS011;74725;44.210;17.906;2024-02-04T12:28:43;41.50;;;25.90;;
84500;SDS011;74725;44.210;17.906;2024-02-04T12:31:17;45.28;;;28.63;;
84500;SDS011;74725;44.210;17.906;2024-02-04T12:33:52;48.88;;;30.50;;
84500;SDS011;74725;44.210;17.906;2024-02-04T12:36:21;48.70;;;31.52;;
84500;SDS011;74725;44.210;17.906;2024-02-04T12:38:54;48.05;;;30.70;;
84500;SDS011;74725;44.210;17.906;2024-02-04T12:41:29;48.60;;;30.35;;
84500;SDS011;74725;44.210;17.906;2024-02-04T12:43:57;50.33;;;31.40;;
84500;SDS011;74725;44.210;17.906;2024-02-04T12:46:26;50.53;;;31.13;;
84500;SDS011;74725;44.210;17.906;2024-02-04T12:48:54;36.40;;;26.08;;
84500;SDS011;74725;44.210;17.906;2024-02-04T12:51:26;39.53;;;25.80;;
84500;SDS011;74725;44.210;17.906;2024-02-04T12:54:05;37.75;;;24.40;;
84500;SDS011;74725;44.210;17.906;2024-02-04T12:59:30;45.33;;;27.85;;
84500;SDS011;74725;44.210;17.906;2024-02-04T13:02:01;44.42;;;28.95;;
84500;SDS011;74725;44.210;17.906;2024-02-04T13:04:36;42.58;;;29.20;;
84500;SDS011;74725;44.210;17.906;2024-02-04T13:07:08;41.33;;;28.45;;
84500;SDS011;74725;44.210;17.906;2024-02-04T13:09:36;46.13;;;28.73;;
84500;SDS011;74725;44.210;17.906;2024-02-04T13:12:04;39.88;;;26.17;;
84500;SDS011;74725;44.210;17.906;2024-02-04T13:14:32;43.95;;;28.33;;
84500;SDS011;74725;44.210;17.906;2024-02-04T13:17:05;47.65;;;27.65;;
84500;SDS011;74725;44.210;17.906;2024-02-04T13:19:38;46.13;;;27.33;;
84500;SDS011;74725;44.210;17.906;2024-02-04T13:22:07;42.90;;;25.85;;
84500;SDS011;74725;44.210;17.906;2024-02-04T13:24:39;43.38;;;26.88;;
84500;SDS011;74725;44.210;17.906;2024-02-04T13:27:12;45.03;;;27.30;;
84500;SDS011;74725;44.210;17.906;2024-02-04T13:29:44;48.95;;;27.15;;
84500;SDS011;74725;44.210;17.906;2024-02-04T13:32:11;44.83;;;27.55;;
84500;SDS011;74725;44.210;17.906;2024-02-04T13:34:39;42.83;;;27.30;;
84500;SDS011;74725;44.210;17.906;2024-02-04T13:37:07;44.72;;;27.67;;
84500;SDS011;74725;44.210;17.906;2024-02-04T13:39:35;42.13;;;26.25;;
84500;SDS011;74725;44.210;17.906;2024-02-04T13:42:03;46.53;;;28.63;;
84500;SDS011;74725;44.210;17.906;2024-02-04T13:44:34;48.53;;;28.95;;
84500;SDS011;74725;44.210;17.906;2024-02-04T13:47:01;53.58;;;31.80;;
84500;SDS011;74725;44.210;17.906;2024-02-04T13:49:30;47.58;;;27.33;;
84500;SDS011;74725;44.210;17.906;2024-02-04T13:51:58;42.10;;;27.73;;
84500;SDS011;74725;44.210;17.906;2024-02-04T13:54:24;45.28;;;29.45;;
84500;SDS011;74725;44.210;17.906;2024-02-04T13:56:52;44.13;;;28.45;;
84500;SDS011;74725;44.210;17.906;2024-02-04T13:59:20;45.00;;;28.08;;
84500;SDS011;74725;44.210;17.906;2024-02-04T14:01:48;42.58;;;28.60;;
84500;SDS011;74725;44.210;17.906;2024-02-04T14:04:17;43.10;;;28.23;;
84500;SDS011;74725;44.210;17.906;2024-02-04T14:06:45;43.08;;;27.92;;
84500;SDS011;74725;44.210;17.906;2024-02-04T14:09:13;40.25;;;26.73;;
84500;SDS011;74725;44.210;17.906;2024-02-04T14:11:41;44.65;;;27.25;;
84500;SDS011;74725;44.210;17.906;2024-02-04T14:14:09;42.65;;;26.75;;
84500;SDS011;74725;44.210;17.906;2024-02-04T14:16:36;38.40;;;26.13;;
84500;SDS011;74725;44.210;17.906;2024-02-04T14:19:09;40.63;;;26.95;;
84500;SDS011;74725;44.210;17.906;2024-02-04T14:21:40;46.17;;;29.65;;
84500;SDS011;74725;44.210;17.906;2024-02-04T14:24:08;52.35;;;31.25;;
84500;SDS011;74725;44.210;17.906;2024-02-04T14:26:37;51.88;;;30.83;;
84500;SDS011;74725;44.210;17.906;2024-02-04T14:29:04;43.00;;;28.70;;
84500;SDS011;74725;44.210;17.906;2024-02-04T14:31:32;40.15;;;26.80;;
84500;SDS011;74725;44.210;17.906;2024-02-04T14:34:01;44.00;;;28.35;;
84500;SDS011;74725;44.210;17.906;2024-02-04T14:36:29;42.67;;;27.42;;
84500;SDS011;74725;44.210;17.906;2024-02-04T14:38:57;55.83;;;33.40;;
84500;SDS011;74725;44.210;17.906;2024-02-04T14:41:27;50.58;;;30.58;;
84500;SDS011;74725;44.210;17.906;2024-02-04T14:43:56;63.97;;;34.28;;
84500;SDS011;74725;44.210;17.906;2024-02-04T14:46:26;77.30;;;44.70;;
84500;SDS011;74725;44.210;17.906;2024-02-04T14:48:55;72.25;;;44.13;;